الصفحة الرئيسية
METAR-TAF:

METAR-TAF

مطار :

ساليدا, كولورادو, الولايات المتحدة

دائرة عرض: 38-32-18N, خط طول: 106-02-55W, ارتفاع: 2293 متر

مراقبة الطقس الحالي

تاريخ ووقت الإصدار 2ساعات و 10 دقيقة قبل الساعة 19:55UTC
ريح 3 عقدة من الجنوب الغربي
درجة الحرارة 6°درجة مئوية
الرطوبة 19%
ضغط 1028 hPa
الرؤية: 16.1 كم
سماء صافية

METAR: KANK 151955Z AUTO 22003KT 10SM CLR 06/M16 A3035 RMK AO1 T00621161

زمن: 16:05 (22:05 UTC)


TAF: مفقودة

أرصاد الطقس والتوقعات من أكثر من 4000 مطار (تقارير الطقس للمطار METAR والتنبؤ بالطقس بالمطارTAF).

المحطات المتاحة هي النقط الصفراء والحمراء على الخريطة.

حرك المؤشر فوق النقطة لمعرفة اسم المحطة.

ثم انقر لمعرفة أرصاد وتوقعات الطقس.

لتغيير الخارطة: اضغط على الأزرار الخضراء مع رمز الصليب الأسود للتكبير. على الزر الأخضر مع شرطة للتصغير، أو على الأسهم الخضراء للخرائط المجاورة.


METAR-TAF: